Time,TemperatureF,DewpointF,PressureIn,WindDirection,WindDirectionDegrees,WindSpeedMPH,WindSpeedGustMPH,Humidity,HourlyPrecipIn,Conditions,Clouds,dailyrainin,SoftwareType,DateUTC
2013-07-11 00:04:00,74.1,71.0,28.85,North,0,0.0,0.0,90,0.00,,---,0.00,VWS V14.00,2013-07-11 04:04:00,
2013-07-11 00:10:00,74.1,71.0,28.85,North,0,0.0,0.0,90,0.00,,---,0.00,VWS V14.00,2013-07-11 04:10:00,
2013-07-11 00:13:00,74.1,71.3,28.85,North,0,0.0,0.0,91,0.00,,---,0.00,VWS V14.00,2013-07-11 04:13:00,
2013-07-11 00:19:00,74.1,71.3,28.85,North,0,0.0,0.0,91,0.00,,---,0.00,VWS V14.00,2013-07-11 04:19:00,
2013-07-11 00:22:00,74.1,71.3,28.85,North,0,0.0,0.0,91,0.00,,---,0.00,VWS V14.00,2013-07-11 04:22:00,
2013-07-11 00:28:00,74.1,71.3,28.85,WNW,292,0.0,0.0,91,0.00,,---,0.00,VWS V14.00,2013-07-11 04:28:00,
2013-07-11 00:34:00,74.1,71.3,28.85,WNW,292,0.0,0.0,91,0.00,,---,0.00,VWS V14.00,2013-07-11 04:34:00,
2013-07-11 00:40:00,74.1,71.3,28.85,WNW,292,0.0,0.0,91,0.00,,---,0.00,VWS V14.00,2013-07-11 04:40:00,
2013-07-11 00:46:00,74.1,71.7,28.85,WNW,292,0.0,0.0,92,0.00,,---,0.00,VWS V14.00,2013-07-11 04:46:00,
2013-07-11 00:52:00,74.1,71.7,28.85,WNW,292,0.0,0.0,92,0.00,,---,0.00,VWS V14.00,2013-07-11 04:52:00,
2013-07-11 00:58:00,74.1,71.7,28.85,WNW,292,0.0,0.0,92,0.00,,---,0.00,VWS V14.00,2013-07-11 04:58:00,
2013-07-11 01:04:00,74.1,71.7,28.85,WNW,292,0.0,0.0,92,0.00,,---,0.00,VWS V14.00,2013-07-11 05:04:00,
2013-07-11 01:10:00,74.1,71.7,28.85,WNW,292,0.0,0.0,92,0.00,,---,0.00,VWS V14.00,2013-07-11 05:10:00,
2013-07-11 01:16:00,74.1,71.7,28.85,WNW,292,0.0,0.0,92,0.00,,---,0.00,VWS V14.00,2013-07-11 05:16:00,
2013-07-11 01:22:00,73.9,71.8,28.85,WNW,292,0.0,0.0,93,0.00,,---,0.00,VWS V14.00,2013-07-11 05:22:00,
2013-07-11 01:28:00,73.9,71.8,28.85,WNW,292,0.0,0.0,93,0.00,,---,0.00,VWS V14.00,2013-07-11 05:28:00,
2013-07-11 01:34:00,73.9,71.8,28.85,WNW,292,0.0,0.0,93,0.00,,---,0.00,VWS V14.00,2013-07-11 05:34:00,
2013-07-11 01:40:00,73.9,71.8,28.85,WNW,292,0.0,0.0,93,0.00,,---,0.00,VWS V14.00,2013-07-11 05:40:00,
2013-07-11 01:46:00,73.9,71.8,28.85,WNW,292,0.0,0.0,93,0.00,,---,0.00,VWS V14.00,2013-07-11 05:46:00,
2013-07-11 01:52:00,73.9,72.1,28.85,WNW,292,0.0,0.0,94,0.00,,---,0.00,VWS V14.00,2013-07-11 05:52:00,
2013-07-11 01:58:00,73.9,72.1,28.85,WNW,292,0.0,0.0,94,0.00,,---,0.00,VWS V14.00,2013-07-11 05:58:00,
2013-07-11 02:04:00,73.9,72.1,28.85,WNW,292,0.0,0.0,94,0.00,,---,0.00,VWS V14.00,2013-07-11 06:04:00,
2013-07-11 02:10:00,73.8,71.9,28.85,WNW,292,0.0,0.0,94,0.00,,---,0.00,VWS V14.00,2013-07-11 06:10:00,
2013-07-11 02:16:00,73.8,71.6,28.85,WNW,292,0.0,0.0,93,0.00,,---,0.00,VWS V14.00,2013-07-11 06:16:00,
2013-07-11 02:22:00,73.8,71.9,28.85,WNW,292,0.0,0.0,94,0.00,,---,0.00,VWS V14.00,2013-07-11 06:22:00,
2013-07-11 02:28:00,73.8,71.9,28.85,WNW,292,0.0,0.0,94,0.00,,---,0.00,VWS V14.00,2013-07-11 06:28:00,
2013-07-11 02:34:00,73.8,71.9,28.82,WNW,292,0.0,0.0,94,0.00,,---,0.00,VWS V14.00,2013-07-11 06:34:00,
2013-07-11 02:40:00,73.8,71.9,28.82,WNW,292,0.0,0.0,94,0.00,,---,0.00,VWS V14.00,2013-07-11 06:40:00,
2013-07-11 02:46:00,73.6,71.8,28.85,WNW,292,0.0,0.0,94,0.00,,---,0.00,VWS V14.00,2013-07-11 06:46:00,
2013-07-11 02:52:00,73.6,71.4,28.85,WNW,292,0.0,0.0,93,0.00,,---,0.00,VWS V14.00,2013-07-11 06:52:00,
2013-07-11 02:58:00,73.6,71.8,28.85,WNW,292,0.0,0.0,94,0.00,,---,0.00,VWS V14.00,2013-07-11 06:58:00,
2013-07-11 03:04:00,73.4,71.3,28.82,WNW,292,0.0,0.0,93,0.00,,---,0.00,VWS V14.00,2013-07-11 07:04:00,
2013-07-11 03:10:00,73.4,71.3,28.82,WNW,292,0.0,0.0,93,0.00,,---,0.00,VWS V14.00,2013-07-11 07:10:00,
2013-07-11 03:16:00,73.4,71.3,28.85,WNW,292,0.0,0.0,93,0.00,,---,0.00,VWS V14.00,2013-07-11 07:16:00,
2013-07-11 03:22:00,73.2,71.4,28.85,WNW,292,0.0,0.0,94,0.00,,---,0.00,VWS V14.00,2013-07-11 07:22:00,
2013-07-11 03:28:00,73.2,71.4,28.85,WNW,292,0.0,0.0,94,0.00,,---,0.00,VWS V14.00,2013-07-11 07:28:00,
2013-07-11 03:34:00,73.2,71.4,28.85,WNW,292,0.0,0.0,94,0.00,,---,0.00,VWS V14.00,2013-07-11 07:34:00,
2013-07-11 03:40:00,73.0,71.2,28.85,WNW,292,0.0,0.0,94,0.00,,---,0.00,VWS V14.00,2013-07-11 07:40:00,
2013-07-11 03:46:00,73.0,71.2,28.82,WNW,292,0.0,0.0,94,0.00,,---,0.00,VWS V14.00,2013-07-11 07:46:00,
2013-07-11 03:52:00,73.0,71.2,28.82,WNW,292,0.0,0.0,94,0.00,,---,0.00,VWS V14.00,2013-07-11 07:52:00,
2013-07-11 03:58:00,72.9,71.0,28.82,WNW,292,0.0,0.0,94,0.00,,---,0.00,VWS V14.00,2013-07-11 07:58:00,
2013-07-11 04:04:00,72.9,71.0,28.82,WNW,292,0.0,0.0,94,0.00,,---,0.00,VWS V14.00,2013-07-11 08:04:00,
2013-07-11 04:10:00,72.9,71.0,28.82,WNW,292,0.0,0.0,94,0.00,,---,0.00,VWS V14.00,2013-07-11 08:10:00,
2013-07-11 04:16:00,72.9,71.0,28.82,WNW,292,0.0,0.0,94,0.00,,---,0.00,VWS V14.00,2013-07-11 08:16:00,
2013-07-11 04:22:00,72.7,70.9,28.82,WNW,292,0.0,0.0,94,0.00,,---,0.00,VWS V14.00,2013-07-11 08:22:00,
2013-07-11 04:28:00,72.7,70.9,28.82,WNW,292,0.0,0.0,94,0.00,,---,0.00,VWS V14.00,2013-07-11 08:28:00,
2013-07-11 04:35:00,72.7,70.9,28.82,WNW,292,0.0,0.0,94,0.00,,---,0.00,VWS V14.00,2013-07-11 08:35:00,
2013-07-11 04:41:00,72.7,70.9,28.82,WNW,292,0.0,0.0,94,0.00,,---,0.00,VWS V14.00,2013-07-11 08:41:00,
2013-07-11 04:47:00,72.7,70.9,28.82,WNW,292,0.0,0.0,94,0.00,,---,0.00,VWS V14.00,2013-07-11 08:47:00,
2013-07-11 04:53:00,72.5,70.7,28.82,WNW,292,0.0,0.0,94,0.00,,---,0.00,VWS V14.00,2013-07-11 08:53:00,
2013-07-11 04:59:00,72.5,70.7,28.82,WNW,292,0.0,0.0,94,0.00,,---,0.00,VWS V14.00,2013-07-11 08:59:00,
2013-07-11 05:05:00,72.5,70.7,28.82,WNW,292,0.0,0.0,94,0.00,,---,0.00,VWS V14.00,2013-07-11 09:05:00,
2013-07-11 05:11:00,72.3,70.8,28.82,WNW,292,0.0,0.0,95,0.00,,---,0.00,VWS V14.00,2013-07-11 09:11:00,
2013-07-11 05:17:00,72.3,70.8,28.82,WNW,292,0.0,0.0,95,0.00,,---,0.00,VWS V14.00,2013-07-11 09:17:00,
2013-07-11 05:23:00,72.3,70.8,28.82,WNW,292,0.0,0.0,95,0.00,,---,0.00,VWS V14.00,2013-07-11 09:23:00,
2013-07-11 05:29:00,72.3,70.8,28.82,WNW,292,0.0,0.0,95,0.00,,---,0.00,VWS V14.00,2013-07-11 09:29:00,
2013-07-11 05:35:00,72.3,70.8,28.82,WNW,292,0.0,0.0,95,0.00,,---,0.00,VWS V14.00,2013-07-11 09:35:00,
2013-07-11 05:41:00,72.3,70.8,28.82,WNW,292,0.0,0.0,95,0.00,,---,0.00,VWS V14.00,2013-07-11 09:41:00,
2013-07-11 05:47:00,72.3,70.8,28.82,WNW,292,0.0,0.0,95,0.00,,---,0.00,VWS V14.00,2013-07-11 09:47:00,
2013-07-11 05:53:00,72.1,70.6,28.82,WNW,292,0.0,0.0,95,0.00,,---,0.00,VWS V14.00,2013-07-11 09:53:00,
2013-07-11 05:59:00,72.1,70.6,28.82,WNW,292,0.0,0.0,95,0.00,,---,0.00,VWS V14.00,2013-07-11 09:59:00,
2013-07-11 06:05:00,72.1,70.6,28.82,WNW,292,0.0,0.0,95,0.00,,---,0.00,VWS V14.00,2013-07-11 10:05:00,
2013-07-11 06:11:00,72.1,70.6,28.82,WNW,292,0.0,0.0,95,0.00,,---,0.00,VWS V14.00,2013-07-11 10:11:00,
2013-07-11 06:17:00,72.1,70.6,28.82,WNW,292,0.0,0.0,95,0.00,,---,0.00,VWS V14.00,2013-07-11 10:17:00,
2013-07-11 06:23:00,72.1,70.6,28.82,WNW,292,0.0,0.0,95,0.00,,---,0.00,VWS V14.00,2013-07-11 10:23:00,
2013-07-11 06:29:00,72.3,70.8,28.82,WNW,292,0.0,0.0,95,0.00,,---,0.00,VWS V14.00,2013-07-11 10:29:00,
2013-07-11 06:35:00,72.1,70.6,28.85,WNW,292,0.0,0.0,95,0.00,,---,0.00,VWS V14.00,2013-07-11 10:35:00,
2013-07-11 06:41:00,72.1,70.6,28.85,WNW,292,0.0,0.0,95,0.00,,---,0.00,VWS V14.00,2013-07-11 10:41:00,
2013-07-11 06:47:00,72.3,71.1,28.85,WNW,292,0.0,0.0,96,0.00,,---,0.00,VWS V14.00,2013-07-11 10:47:00,
2013-07-11 06:53:00,72.3,71.1,28.85,WNW,292,0.0,0.0,96,0.00,,---,0.00,VWS V14.00,2013-07-11 10:53:00,
2013-07-11 06:59:00,72.3,71.1,28.85,WNW,292,0.0,0.0,96,0.00,,---,0.00,VWS V14.00,2013-07-11 10:59:00,
2013-07-11 07:05:00,72.3,71.1,28.85,WNW,292,0.0,0.0,96,0.00,,---,0.00,VWS V14.00,2013-07-11 11:05:00,
2013-07-11 07:11:00,72.5,71.3,28.85,WNW,292,0.0,0.0,96,0.00,,---,0.00,VWS V14.00,2013-07-11 11:11:00,
2013-07-11 07:17:00,72.5,71.6,28.85,WNW,292,0.0,0.0,97,0.00,,---,0.00,VWS V14.00,2013-07-11 11:17:00,
2013-07-11 07:23:00,72.5,71.6,28.85,WNW,292,0.0,0.0,97,0.00,,---,0.00,VWS V14.00,2013-07-11 11:23:00,
2013-07-11 07:29:00,72.7,71.8,28.85,WNW,292,0.0,0.0,97,0.00,,---,0.00,VWS V14.00,2013-07-11 11:29:00,
2013-07-11 07:35:00,72.7,72.1,28.85,WNW,292,0.0,0.0,98,0.00,,---,0.00,VWS V14.00,2013-07-11 11:35:00,
2013-07-11 07:41:00,72.7,72.1,28.85,WNW,292,0.0,0.0,98,0.00,,---,0.00,VWS V14.00,2013-07-11 11:41:00,
2013-07-11 07:47:00,72.9,72.3,28.85,WNW,292,0.0,0.0,98,0.00,,---,0.00,VWS V14.00,2013-07-11 11:47:00,
2013-07-11 07:53:00,72.9,72.3,28.85,WNW,292,0.0,0.0,98,0.00,,---,0.00,VWS V14.00,2013-07-11 11:53:00,
2013-07-11 07:59:00,73.0,72.4,28.85,WNW,292,0.0,0.0,98,0.00,,---,0.00,VWS V14.00,2013-07-11 11:59:00,
2013-07-11 08:05:00,73.0,72.4,28.85,WNW,292,0.0,0.0,98,0.00,,---,0.00,VWS V14.00,2013-07-11 12:05:00,
2013-07-11 08:11:00,73.2,72.6,28.85,WNW,292,0.0,0.0,98,0.00,,---,0.00,VWS V14.00,2013-07-11 12:11:00,
2013-07-11 08:17:00,73.4,72.8,28.85,West,270,0.0,0.0,98,0.00,,---,0.00,VWS V14.00,2013-07-11 12:17:00,
2013-07-11 08:23:00,73.4,72.8,28.85,West,270,0.0,0.0,98,0.00,,---,0.00,VWS V14.00,2013-07-11 12:23:00,
2013-07-11 08:29:00,73.4,72.8,28.85,West,270,1.6,1.6,98,0.00,,---,0.00,VWS V14.00,2013-07-11 12:29:00,
2013-07-11 08:35:00,73.6,73.0,28.85,West,270,0.0,2.5,98,0.00,,---,0.00,VWS V14.00,2013-07-11 12:35:00,
2013-07-11 08:41:00,73.6,73.3,28.85,West,270,0.0,2.5,99,0.00,,---,0.00,VWS V14.00,2013-07-11 12:41:00,
2013-07-11 08:47:00,73.8,73.5,28.85,SW,225,0.0,2.5,99,0.00,,---,0.00,VWS V14.00,2013-07-11 12:47:00,
2013-07-11 08:53:00,73.8,73.5,28.85,West,270,0.0,2.5,99,0.00,,---,0.00,VWS V14.00,2013-07-11 12:53:00,
2013-07-11 09:00:00,73.9,73.7,28.85,NW,315,0.0,2.5,99,0.00,,---,0.00,VWS V14.00,2013-07-11 13:00:00,
2013-07-11 09:06:00,74.1,73.8,28.85,SE,135,0.0,2.5,99,0.00,,---,0.00,VWS V14.00,2013-07-11 13:06:00,
2013-07-11 09:12:00,74.1,73.8,28.85,WNW,292,0.0,2.5,99,0.00,,---,0.00,VWS V14.00,2013-07-11 13:12:00,
2013-07-11 09:18:00,74.3,74.0,28.85,East,90,0.0,2.5,99,0.00,,---,0.00,VWS V14.00,2013-07-11 13:18:00,
2013-07-11 09:24:00,74.5,74.2,28.85,West,270,0.0,2.5,99,0.00,,---,0.00,VWS V14.00,2013-07-11 13:24:00,
2013-07-11 09:30:00,74.5,74.2,28.85,WNW,292,0.0,2.5,99,0.00,,---,0.00,VWS V14.00,2013-07-11 13:30:00,
2013-07-11 09:36:00,74.7,74.4,28.85,WNW,292,0.0,2.5,99,0.00,,---,0.00,VWS V14.00,2013-07-11 13:36:00,
2013-07-11 09:42:00,74.7,74.1,28.85,NW,315,0.0,2.5,98,0.00,,---,0.00,VWS V14.00,2013-07-11 13:42:00,
2013-07-11 09:51:00,75.0,74.4,28.85,SW,225,0.0,2.5,98,0.00,,---,0.00,VWS V14.00,2013-07-11 13:51:00,
2013-07-11 09:57:00,75.2,74.3,28.85,SW,225,0.0,2.5,97,0.00,,---,0.00,VWS V14.00,2013-07-11 13:57:00,
2013-07-11 10:03:00,75.2,74.3,28.85,SW,225,0.0,0.0,97,0.00,,---,0.00,VWS V14.00,2013-07-11 14:03:00,
2013-07-11 10:16:00,75.4,74.2,28.85,SW,225,0.0,0.0,96,0.00,,---,0.00,VWS V14.00,2013-07-11 14:16:00,
2013-07-11 10:22:00,75.6,74.3,28.85,SW,225,0.0,0.0,96,0.00,,---,0.00,VWS V14.00,2013-07-11 14:22:00,
2013-07-11 10:28:00,75.6,74.3,28.85,SW,225,0.0,0.0,96,0.00,,---,0.00,VWS V14.00,2013-07-11 14:28:00,
2013-07-11 10:37:00,75.6,74.0,28.85,SW,225,0.0,0.0,95,0.00,,---,0.00,VWS V14.00,2013-07-11 14:37:00,
2013-07-11 10:43:00,75.6,74.0,28.85,WNW,292,0.0,0.0,95,0.00,,---,0.00,VWS V14.00,2013-07-11 14:43:00,
2013-07-11 10:49:00,75.6,74.0,28.85,West,270,0.0,0.0,95,0.00,,---,0.00,VWS V14.00,2013-07-11 14:49:00,
2013-07-11 10:55:00,75.6,74.3,28.85,West,270,0.0,0.0,96,0.00,,---,0.00,VWS V14.00,2013-07-11 14:55:00,
2013-07-11 11:01:00,75.6,74.3,28.85,West,270,0.0,0.0,96,0.00,,---,0.00,VWS V14.00,2013-07-11 15:01:00,
2013-07-11 11:11:00,75.6,74.0,28.85,West,270,0.0,0.0,95,0.00,,---,0.00,VWS V14.00,2013-07-11 15:11:00,
2013-07-11 11:17:00,75.7,74.5,28.85,West,270,0.0,0.0,96,0.00,,---,0.00,VWS V14.00,2013-07-11 15:17:00,
2013-07-11 11:29:00,75.7,74.5,28.85,West,270,0.0,2.0,96,0.00,,---,0.00,VWS V14.00,2013-07-11 15:29:00,
2013-07-11 11:35:00,75.9,74.4,28.85,West,270,0.0,2.0,95,0.00,,---,0.00,VWS V14.00,2013-07-11 15:35:00,
2013-07-11 11:41:00,75.9,74.4,28.85,West,270,0.0,2.0,95,0.00,,---,0.00,VWS V14.00,2013-07-11 15:41:00,
2013-07-11 11:47:00,75.9,74.4,28.85,West,270,0.0,2.0,95,0.00,,---,0.00,VWS V14.00,2013-07-11 15:47:00,
2013-07-11 11:53:00,76.1,74.6,28.85,West,270,0.0,2.0,95,0.00,,---,0.00,VWS V14.00,2013-07-11 15:53:00,
2013-07-11 11:59:00,76.1,74.6,28.85,West,270,0.0,2.0,95,0.00,,---,0.00,VWS V14.00,2013-07-11 15:59:00,
2013-07-11 12:08:00,76.1,74.6,28.85,West,270,0.0,0.0,95,0.00,,---,0.00,VWS V14.00,2013-07-11 16:08:00,
2013-07-11 12:15:00,76.1,74.9,28.85,West,270,0.0,0.0,96,0.00,,---,0.00,VWS V14.00,2013-07-11 16:15:00,
2013-07-11 12:21:00,76.3,75.1,28.85,West,270,0.0,1.1,96,0.00,,---,0.00,VWS V14.00,2013-07-11 16:21:00,
2013-07-11 12:27:00,76.3,75.1,28.85,West,270,0.0,1.1,96,0.00,,---,0.00,VWS V14.00,2013-07-11 16:27:00,
2013-07-11 12:36:00,76.5,74.9,28.85,North,0,0.0,1.1,95,0.00,,---,0.00,VWS V14.00,2013-07-11 16:36:00,
2013-07-11 12:42:00,76.6,75.1,28.85,NW,315,0.0,1.1,95,0.00,,---,0.00,VWS V14.00,2013-07-11 16:42:00,
2013-07-11 12:48:00,76.8,75.3,28.85,West,270,0.0,1.1,95,0.00,,---,0.00,VWS V14.00,2013-07-11 16:48:00,
2013-07-11 12:54:00,77.0,75.5,28.85,West,270,0.0,1.1,95,0.00,,---,0.00,VWS V14.00,2013-07-11 16:54:00,
2013-07-11 13:00:00,77.2,75.6,28.85,West,270,0.0,1.1,95,0.00,,---,0.00,VWS V14.00,2013-07-11 17:00:00,
2013-07-11 13:06:00,77.2,75.3,28.85,West,270,0.0,0.0,94,0.00,,---,0.00,VWS V14.00,2013-07-11 17:06:00,
2013-07-11 13:12:00,77.4,75.2,28.85,SSW,202,0.0,0.0,93,0.00,,---,0.00,VWS V14.00,2013-07-11 17:12:00,
2013-07-11 13:18:00,77.5,75.0,28.85,NW,315,0.0,0.0,92,0.00,,---,0.00,VWS V14.00,2013-07-11 17:18:00,
2013-07-11 13:28:00,77.7,75.2,28.85,WNW,292,0.0,0.0,92,0.00,,---,0.00,VWS V14.00,2013-07-11 17:28:00,
2013-07-11 13:34:00,78.1,75.2,28.85,WNW,292,0.0,0.0,91,0.00,,---,0.00,VWS V14.00,2013-07-11 17:34:00,
2013-07-11 13:43:00,78.3,75.4,28.85,SE,135,0.0,0.0,91,0.00,,---,0.00,VWS V14.00,2013-07-11 17:43:00,
2013-07-11 13:52:00,78.6,75.4,28.85,SE,135,0.0,0.0,90,0.00,,---,0.00,VWS V14.00,2013-07-11 17:52:00,
2013-07-11 13:58:00,78.8,75.6,28.85,West,270,0.0,0.0,90,0.00,,---,0.00,VWS V14.00,2013-07-11 17:58:00,
2013-07-11 14:04:00,79.0,75.5,28.82,West,270,0.0,0.0,89,0.00,,---,0.00,VWS V14.00,2013-07-11 18:04:00,
2013-07-11 14:10:00,79.2,75.6,28.82,WSW,248,0.0,0.0,89,0.00,,---,0.00,VWS V14.00,2013-07-11 18:10:00,
2013-07-11 14:16:00,79.2,75.3,28.82,SW,225,0.0,0.0,88,0.00,,---,0.00,VWS V14.00,2013-07-11 18:16:00,
2013-07-11 14:22:00,79.3,75.5,28.82,SW,225,0.0,0.0,88,0.00,,---,0.00,VWS V14.00,2013-07-11 18:22:00,
2013-07-11 14:29:00,79.5,75.7,28.82,SW,225,0.0,0.0,88,0.00,,---,0.00,VWS V14.00,2013-07-11 18:29:00,
2013-07-11 14:44:00,79.7,75.2,28.82,West,270,0.0,0.0,86,0.00,,---,0.00,VWS V14.00,2013-07-11 18:44:00,
2013-07-11 14:53:00,79.9,75.3,28.82,South,180,0.0,0.0,86,0.00,,---,0.00,VWS V14.00,2013-07-11 18:53:00,
2013-07-11 14:59:00,79.9,75.3,28.82,East,90,0.0,0.0,86,0.00,,---,0.00,VWS V14.00,2013-07-11 18:59:00,
2013-07-11 15:05:00,80.1,75.2,28.82,WSW,248,0.0,0.0,85,0.00,,---,0.00,VWS V14.00,2013-07-11 19:05:00,
2013-07-11 15:11:00,80.2,75.3,28.82,WSW,248,0.0,0.0,85,0.00,,---,0.00,VWS V14.00,2013-07-11 19:11:00,
2013-07-11 15:17:00,80.4,75.5,28.82,West,270,0.0,0.0,85,0.00,,---,0.00,VWS V14.00,2013-07-11 19:17:00,
2013-07-11 15:24:00,80.6,75.3,28.82,WNW,292,0.9,1.3,84,0.00,,---,0.00,VWS V14.00,2013-07-11 19:24:00,
2013-07-11 15:30:00,80.6,75.3,28.82,WNW,292,0.0,2.0,84,0.00,,---,0.00,VWS V14.00,2013-07-11 19:30:00,
2013-07-11 15:36:00,80.8,75.5,28.79,SE,135,0.0,2.0,84,0.00,,---,0.00,VWS V14.00,2013-07-11 19:36:00,
2013-07-11 15:42:00,81.0,76.0,28.79,NW,315,0.0,2.0,85,0.00,,---,0.00,VWS V14.00,2013-07-11 19:42:00,
2013-07-11 15:48:00,81.0,76.0,28.79,NW,315,0.0,2.0,85,0.00,,---,0.00,VWS V14.00,2013-07-11 19:48:00,
2013-07-11 15:54:00,81.0,75.7,28.79,East,90,0.0,2.0,84,0.00,,---,0.00,VWS V14.00,2013-07-11 19:54:00,
2013-07-11 16:00:00,81.1,76.2,28.79,NE,45,0.0,2.7,85,0.00,,---,0.00,VWS V14.00,2013-07-11 20:00:00,
2013-07-11 16:06:00,81.1,75.8,28.79,ENE,68,0.0,2.0,84,0.00,,---,0.00,VWS V14.00,2013-07-11 20:06:00,
2013-07-11 16:12:00,81.1,75.5,28.79,SW,225,0.0,2.0,83,0.00,,---,0.00,VWS V14.00,2013-07-11 20:12:00,
2013-07-11 16:18:00,81.1,75.5,28.79,NNW,338,0.0,2.5,83,0.00,,---,0.00,VWS V14.00,2013-07-11 20:18:00,
2013-07-11 16:24:00,81.1,75.5,28.79,West,270,0.0,2.5,83,0.00,,---,0.00,VWS V14.00,2013-07-11 20:24:00,
2013-07-11 16:30:00,81.1,75.5,28.79,West,270,0.0,2.5,83,0.00,,---,0.00,VWS V14.00,2013-07-11 20:30:00,
2013-07-11 16:36:00,81.3,75.7,28.79,South,180,1.3,2.5,83,0.00,,---,0.00,VWS V14.00,2013-07-11 20:36:00,
2013-07-11 16:42:00,81.3,75.7,28.79,West,270,0.0,2.5,83,0.00,,---,0.00,VWS V14.00,2013-07-11 20:42:00,
2013-07-11 16:48:00,81.3,75.7,28.76,WSW,248,0.0,2.5,83,0.00,,---,0.00,VWS V14.00,2013-07-11 20:48:00,
2013-07-11 16:54:00,81.3,75.3,28.76,East,90,0.9,2.5,82,0.00,,---,0.00,VWS V14.00,2013-07-11 20:54:00,
2013-07-11 17:00:00,81.3,75.7,28.76,NNW,338,0.0,2.5,83,0.00,,---,0.00,VWS V14.00,2013-07-11 21:00:00,
2013-07-11 17:06:00,81.3,75.3,28.76,SE,135,1.6,2.5,82,0.00,,---,0.00,VWS V14.00,2013-07-11 21:06:00,
2013-07-11 17:16:00,81.3,75.3,28.76,East,90,2.5,2.5,82,0.00,,---,0.00,VWS V14.00,2013-07-11 21:16:00,
2013-07-11 17:22:00,81.3,75.3,28.76,North,0,1.6,2.7,82,0.00,,---,0.00,VWS V14.00,2013-07-11 21:22:00,
2013-07-11 17:28:00,81.5,75.5,28.76,East,90,0.0,2.7,82,0.00,,---,0.00,VWS V14.00,2013-07-11 21:28:00,
2013-07-11 17:37:00,81.5,75.1,28.76,SW,225,0.0,3.4,81,0.00,,---,0.00,VWS V14.00,2013-07-11 21:37:00,
2013-07-11 17:46:00,81.5,75.1,28.76,ENE,68,0.0,3.4,81,0.00,,---,0.00,VWS V14.00,2013-07-11 21:46:00,
2013-07-11 17:52:00,81.5,75.1,28.76,SW,225,0.0,3.4,81,0.00,,---,0.00,VWS V14.00,2013-07-11 21:52:00,
2013-07-11 17:58:00,81.5,75.1,28.76,ESE,112,0.0,3.4,81,0.00,,---,0.00,VWS V14.00,2013-07-11 21:58:00,
2013-07-11 18:04:00,81.5,75.1,28.76,ESE,112,0.0,0.0,81,0.00,,---,0.00,VWS V14.00,2013-07-11 22:04:00,
2013-07-11 18:10:00,81.3,74.9,28.76,East,90,0.0,0.0,81,0.00,,---,0.00,VWS V14.00,2013-07-11 22:10:00,
2013-07-11 18:16:00,81.3,74.9,28.76,East,90,0.0,0.0,81,0.00,,---,0.00,VWS V14.00,2013-07-11 22:16:00,
2013-07-11 18:22:00,81.3,74.9,28.76,West,270,0.0,1.3,81,0.00,,---,0.00,VWS V14.00,2013-07-11 22:22:00,
2013-07-11 18:28:00,81.1,74.8,28.76,NNE,22,0.0,1.3,81,0.00,,---,0.00,VWS V14.00,2013-07-11 22:28:00,
2013-07-11 18:38:00,81.1,74.8,28.76,East,90,0.0,2.5,81,0.00,,---,0.00,VWS V14.00,2013-07-11 22:38:00,
2013-07-11 18:44:00,81.1,74.8,28.76,NE,45,1.6,2.5,81,0.00,,---,0.00,VWS V14.00,2013-07-11 22:44:00,
2013-07-11 18:50:00,81.0,74.9,28.76,NW,315,0.0,2.5,82,0.00,,---,0.00,VWS V14.00,2013-07-11 22:50:00,
2013-07-11 18:59:00,80.8,74.8,28.76,NNW,338,0.0,2.5,82,0.00,,---,0.00,VWS V14.00,2013-07-11 22:59:00,
2013-07-11 19:11:00,80.6,74.6,28.76,West,270,0.0,1.6,82,0.00,,---,0.00,VWS V14.00,2013-07-11 23:11:00,
2013-07-11 19:17:00,80.6,74.6,28.76,SE,135,0.0,1.6,82,0.00,,---,0.00,VWS V14.00,2013-07-11 23:17:00,
2013-07-11 19:26:00,80.4,74.8,28.76,NE,45,0.0,1.6,83,0.00,,---,0.00,VWS V14.00,2013-07-11 23:26:00,
2013-07-11 19:32:00,80.4,74.8,28.76,WNW,292,0.0,1.6,83,0.00,,---,0.00,VWS V14.00,2013-07-11 23:32:00,
2013-07-11 19:38:00,80.2,75.0,28.76,SSW,202,0.0,2.5,84,0.00,,---,0.00,VWS V14.00,2013-07-11 23:38:00,
2013-07-11 19:48:00,80.1,74.8,28.76,North,0,0.0,2.5,84,0.00,,---,0.00,VWS V14.00,2013-07-11 23:48:00,
2013-07-11 19:54:00,80.1,75.2,28.76,North,0,0.0,2.5,85,0.00,,---,0.00,VWS V14.00,2013-07-11 23:54:00,
2013-07-11 20:00:00,79.9,75.0,28.76,NE,45,1.6,2.5,85,0.00,,---,0.00,VWS V14.00,2013-07-12 00:00:00,
2013-07-11 20:06:00,79.7,74.8,28.76,NE,45,0.0,1.6,85,0.00,,---,0.00,VWS V14.00,2013-07-12 00:06:00,
2013-07-11 20:12:00,79.7,74.8,28.76,NE,45,0.0,1.6,85,0.00,,---,0.00,VWS V14.00,2013-07-12 00:12:00,
2013-07-11 20:18:00,79.5,75.0,28.76,NE,45,0.0,1.6,86,0.00,,---,0.00,VWS V14.00,2013-07-12 00:18:00,
2013-07-11 20:24:00,79.3,74.8,28.76,NE,45,0.0,1.6,86,0.00,,---,0.00,VWS V14.00,2013-07-12 00:24:00,
2013-07-11 20:30:00,79.3,74.8,28.76,ENE,68,0.0,1.6,86,0.00,,---,0.00,VWS V14.00,2013-07-12 00:30:00,
2013-07-11 20:36:00,79.0,74.8,28.76,NE,45,0.0,1.6,87,0.00,,---,0.00,VWS V14.00,2013-07-12 00:36:00,
2013-07-11 20:42:00,79.0,74.8,28.76,NNE,22,0.0,1.6,87,0.00,,---,0.00,VWS V14.00,2013-07-12 00:42:00,
2013-07-11 20:51:00,78.8,74.9,28.76,NNW,338,0.0,1.6,88,0.00,,---,0.00,VWS V14.00,2013-07-12 00:51:00,
2013-07-11 20:57:00,78.4,74.6,28.76,NNW,338,0.0,1.6,88,0.00,,---,0.00,VWS V14.00,2013-07-12 00:57:00,
2013-07-11 21:06:00,78.3,74.8,28.76,NNW,338,0.0,0.0,89,0.00,,---,0.00,VWS V14.00,2013-07-12 01:06:00,
2013-07-11 21:12:00,78.3,74.8,28.76,NNW,338,0.0,0.0,89,0.00,,---,0.00,VWS V14.00,2013-07-12 01:12:00,
2013-07-11 21:22:00,77.9,74.4,28.76,NNW,338,0.0,0.0,89,0.00,,---,0.00,VWS V14.00,2013-07-12 01:22:00,
2013-07-11 21:28:00,77.7,74.6,28.76,NNW,338,0.0,0.0,90,0.00,,---,0.00,VWS V14.00,2013-07-12 01:28:00,
2013-07-11 21:37:00,77.5,74.4,28.76,NNW,338,0.0,0.0,90,0.00,,---,0.00,VWS V14.00,2013-07-12 01:37:00,
2013-07-11 21:43:00,77.5,74.4,28.76,NNW,338,0.0,0.0,90,0.00,,---,0.00,VWS V14.00,2013-07-12 01:43:00,
2013-07-11 21:49:00,77.4,74.5,28.79,NNW,338,0.0,0.0,91,0.00,,---,0.00,VWS V14.00,2013-07-12 01:49:00,
2013-07-11 21:58:00,77.2,74.3,28.79,NNW,338,0.0,0.0,91,0.00,,---,0.00,VWS V14.00,2013-07-12 01:58:00,
2013-07-11 22:04:00,77.0,74.2,28.79,NNW,338,0.0,0.0,91,0.00,,---,0.00,VWS V14.00,2013-07-12 02:04:00,
2013-07-11 22:10:00,77.0,74.2,28.79,NNW,338,0.0,0.0,91,0.00,,---,0.00,VWS V14.00,2013-07-12 02:10:00,
2013-07-11 22:17:00,76.8,74.3,28.79,NNW,338,0.0,0.0,92,0.00,,---,0.00,VWS V14.00,2013-07-12 02:17:00,
2013-07-11 22:23:00,76.8,74.3,28.79,NNW,338,0.0,0.0,92,0.00,,---,0.00,VWS V14.00,2013-07-12 02:23:00,
2013-07-11 22:29:00,76.6,74.2,28.79,NNW,338,0.0,0.0,92,0.00,,---,0.00,VWS V14.00,2013-07-12 02:29:00,
2013-07-11 22:35:00,76.5,74.0,28.79,NNW,338,0.0,0.0,92,0.00,,---,0.00,VWS V14.00,2013-07-12 02:35:00,
2013-07-11 22:41:00,76.5,74.0,28.79,NNW,338,0.0,0.0,92,0.00,,---,0.00,VWS V14.00,2013-07-12 02:41:00,
2013-07-11 22:47:00,76.5,74.3,28.79,NNW,338,0.0,0.0,93,0.00,,---,0.00,VWS V14.00,2013-07-12 02:47:00,
2013-07-11 22:59:00,76.3,74.1,28.79,NNW,338,0.0,0.0,93,0.00,,---,0.00,VWS V14.00,2013-07-12 02:59:00,
2013-07-11 23:05:00,76.1,73.9,28.79,NNW,338,0.0,0.0,93,0.00,,---,0.00,VWS V14.00,2013-07-12 03:05:00,
2013-07-11 23:11:00,76.1,73.9,28.79,NNW,338,0.0,0.0,93,0.00,,---,0.00,VWS V14.00,2013-07-12 03:11:00,
2013-07-11 23:17:00,76.1,73.9,28.79,ENE,68,0.0,0.0,93,0.00,,---,0.00,VWS V14.00,2013-07-12 03:17:00,
2013-07-11 23:27:00,75.4,71.9,28.79,NW,315,0.0,2.5,89,0.00,,---,0.00,VWS V14.00,2013-07-12 03:27:00,
2013-07-11 23:33:00,75.0,70.9,28.79,East,90,0.0,2.5,87,0.00,,---,0.00,VWS V14.00,2013-07-12 03:33:00,
2013-07-11 23:39:00,74.7,70.5,28.79,ENE,68,0.0,2.5,87,0.00,,---,0.00,VWS V14.00,2013-07-12 03:39:00,
2013-07-11 23:45:00,74.5,70.4,28.79,NNE,22,0.0,2.5,87,0.17,,---,0.17,VWS V14.00,2013-07-12 03:45:00,
2013-07-11 23:51:00,74.1,70.3,28.82,WSW,248,2.0,2.5,88,0.33,,---,0.33,VWS V14.00,2013-07-12 03:51:00,
2013-07-11 23:57:00,73.9,70.5,28.82,WSW,248,2.5,3.1,89,0.38,,---,0.38,VWS V14.00,2013-07-12 03:57:00,